This is the latest recevied weather packets stored in our database for station/object HB9HFD-13. If no packets are shown the sender has not sent any weather packets the latest 1 day(s).
| Time | Temp. | Humidity | Pressure | Rain* | Wind** | Luminosity | Snow |
|---|---|---|---|---|---|---|---|
| 1778110602 | 7.78° C | 93% | 1010.6 hPa | 0.25 mm | - | - | - |
| 1778110002 | 7.78° C | 93% | 1010.5 hPa | 0.25 mm | - | - | - |
| 1778109101 | 7.78° C | 93% | 1010.5 hPa | 0.25 mm | - | - | - |
| 1778107900 | 8.33° C | 92% | 1010.4 hPa | 0.25 mm | - | - | - |
| 1778107600 | 8.33° C | 92% | 1010.4 hPa | 0.25 mm | - | - | - |
| 1778106399 | 8.33° C | 91% | 1010.3 hPa | 0.25 mm | - | - | - |
| 1778105498 | 8.89° C | 91% | 1010.4 hPa | 0.51 mm | - | - | - |
| 1778105198 | 8.89° C | 91% | 1010.4 hPa | 0.51 mm | - | - | - |
| 1778104297 | 8.89° C | 91% | 1010.3 hPa | 0.51 mm | - | - | - |
| 1778103096 | 8.89° C | 92% | 1010.1 hPa | 1.52 mm | - | - | - |
| 1778102195 | 8.89° C | 91% | 1010 hPa | 2.54 mm | - | - | - |
| 1778100994 | 8.89° C | 90% | 1010 hPa | 2.54 mm | - | - | - |
| 1778099793 | 9.44° C | 87% | 1010 hPa | 1.52 mm | - | - | - |
| 1778098892 | 10.56° C | 80% | 1009.8 hPa | 0.25 mm | - | - | - |
| 1778098592 | 11.11° C | 80% | 1009.8 hPa | 0 mm | - | - | - |
| 1778097391 | 11.11° C | 81% | 1009.4 hPa | 0 mm | - | - | - |
| 1778096790 | 11.11° C | 82% | 1009.4 hPa | 0 mm | - | - | - |
| 1778096490 | 11.11° C | 82% | 1009.3 hPa | 0 mm | - | - | - |
| 1778095889 | 11.11° C | 83% | 1009.1 hPa | 0 mm | - | - | - |
| 1778095289 | 11.11° C | 83% | 1008.9 hPa | 0 mm | - | - | - |
| 1778094388 | 11.67° C | 82% | 1008.6 hPa | 0 mm | - | - | - |
| 1778094088 | 11.67° C | 82% | 1008.6 hPa | 0 mm | - | - | - |
| 1778093187 | 11.67° C | 82% | 1008.5 hPa | 0 mm | - | - | - |
| 1778091986 | 12.22° C | 79% | 1008.4 hPa | 0 mm | - | - | - |
| 1778090785 | 12.78° C | 78% | 1008.3 hPa | 0 mm | - | - | - |
* Rain latest hour (hover to see other rain measurements)
** Current wind speed in m/s (hover to see current wind gust speed)